Current Weather

Kokomo Municipal Airport

Kokomo Municipal Airport, Indiana (KOKK)

Report from: Thursday, May 19, 2022 1:56 PM EDT
Current time: Thursday, May 19, 2022 2:13 PM EDT

Nearby weather
Weather history
Weather forecast

Temperature25.0°C (77.0°F)
Dew point19.4°C (66.9°F)
Winds 14 kts (7.2 m/s, 16.1 mph) South-Southwest (200°)
Visibility10 mi. (16.1 km)
Clouds Few clouds 3,000 ft. (914 m)
Altimeter29.75 in.Hg (1007 mB)
Relative humidity71 %
Density altitude1,660 ft. (506 m)
Sea-level pressure100.7 kPa (1007 mB, 29.74 in.Hg)
Max temp last 6 hours25.0°C (77.0°F)
Min temp last 6 hours16.1°C (61.0°F)
Remarks Fully automated report
System requires maintenance
Automated weather observing station with precipitation discriminator
Precipitation sensor not operating
Pressure falling more slowly
Flight conditions Visual Meteorological Conditions
Raw dataKOKK 191756Z AUTO 20014KT 10SM FEW030 25/19 A2975 RMK AO2 SLP072 6//// T02500194 10250 20161 56021 PNO $
An error has occurred. This application may no longer respond until reloaded. Reload 🗙